sensor_id;sensor_type;location;lat;lon;timestamp;temperature;humidity
40702;DHT22;26387;50.114;8.662;2022-10-16T10:56:51;20.80;99.00
40702;DHT22;26387;50.114;8.662;2022-10-16T11:02:21;21.10;98.00
40702;DHT22;26387;50.114;8.662;2022-10-16T11:07:25;21.40;97.60
40702;DHT22;26387;50.114;8.662;2022-10-16T11:09:59;21.40;97.80
40702;DHT22;26387;50.114;8.662;2022-10-16T11:12:38;21.50;97.70
40702;DHT22;26387;50.114;8.662;2022-10-16T11:15:19;21.50;97.60
40702;DHT22;26387;50.114;8.662;2022-10-16T11:17:59;21.70;97.50
40702;DHT22;26387;50.114;8.662;2022-10-16T11:20:34;21.80;97.40
40702;DHT22;26387;50.114;8.662;2022-10-16T11:23:30;21.70;97.30
40702;DHT22;26387;50.114;8.662;2022-10-16T11:25:59;21.60;97.30
40702;DHT22;26387;50.114;8.662;2022-10-16T11:28:32;21.50;97.30
40702;DHT22;26387;50.114;8.662;2022-10-16T11:34:12;21.40;98.10
40702;DHT22;26387;50.114;8.662;2022-10-16T11:36:57;21.30;98.10
40702;DHT22;26387;50.114;8.662;2022-10-16T11:39:26;21.30;98.30
40702;DHT22;26387;50.114;8.662;2022-10-16T11:47:19;21.00;98.70
40702;DHT22;26387;50.114;8.662;2022-10-16T11:49:51;21.00;98.80
40702;DHT22;26387;50.114;8.662;2022-10-16T11:55:04;20.90;98.70
40702;DHT22;26387;50.114;8.662;2022-10-16T11:57:41;20.90;99.00
40702;DHT22;26387;50.114;8.662;2022-10-16T12:00:20;21.10;98.90
40702;DHT22;26387;50.114;8.662;2022-10-16T12:05:29;21.60;98.00
40702;DHT22;26387;50.114;8.662;2022-10-16T12:08:13;22.00;97.30
40702;DHT22;26387;50.114;8.662;2022-10-16T14:23:34;25.00;92.10
40702;DHT22;26387;50.114;8.662;2022-10-16T14:26:16;22.80;94.30
40702;DHT22;26387;50.114;8.662;2022-10-16T14:28:43;22.50;94.70
40702;DHT22;26387;50.114;8.662;2022-10-16T14:31:25;22.40;95.00
40702;DHT22;26387;50.114;8.662;2022-10-16T14:33:51;22.30;95.30
40702;DHT22;26387;50.114;8.662;2022-10-16T14:36:17;22.30;96.20
40702;DHT22;26387;50.114;8.662;2022-10-16T14:41:21;22.30;96.40
40702;DHT22;26387;50.114;8.662;2022-10-16T14:43:51;22.30;96.70
40702;DHT22;26387;50.114;8.662;2022-10-16T14:46:21;22.40;96.40
40702;DHT22;26387;50.114;8.662;2022-10-16T14:48:58;22.40;96.50
40702;DHT22;26387;50.114;8.662;2022-10-16T14:51:25;22.50;96.10
40702;DHT22;26387;50.114;8.662;2022-10-16T14:53:51;22.60;96.00
40702;DHT22;26387;50.114;8.662;2022-10-16T14:56:19;22.60;95.80
40702;DHT22;26387;50.114;8.662;2022-10-16T14:58:46;22.60;95.60
40702;DHT22;26387;50.114;8.662;2022-10-16T15:01:12;22.60;95.50
40702;DHT22;26387;50.114;8.662;2022-10-16T15:03:38;22.50;95.70
40702;DHT22;26387;50.114;8.662;2022-10-16T15:06:10;22.50;96.10
40702;DHT22;26387;50.114;8.662;2022-10-16T15:08:36;22.30;95.60
40702;DHT22;26387;50.114;8.662;2022-10-16T15:11:02;22.20;95.50
40702;DHT22;26387;50.114;8.662;2022-10-16T15:13:27;22.30;95.80
40702;DHT22;26387;50.114;8.662;2022-10-16T15:15:53;22.30;95.70
40702;DHT22;26387;50.114;8.662;2022-10-16T15:18:19;22.30;95.50
40702;DHT22;26387;50.114;8.662;2022-10-16T15:20:51;22.40;95.50
40702;DHT22;26387;50.114;8.662;2022-10-16T15:23:20;22.50;95.50
40702;DHT22;26387;50.114;8.662;2022-10-16T15:25:48;22.50;95.50
40702;DHT22;26387;50.114;8.662;2022-10-16T15:28:15;22.50;95.70
40702;DHT22;26387;50.114;8.662;2022-10-16T15:30:42;22.50;95.50
40702;DHT22;26387;50.114;8.662;2022-10-16T15:33:16;22.50;95.90
40702;DHT22;26387;50.114;8.662;2022-10-16T15:35:42;22.50;95.80
40702;DHT22;26387;50.114;8.662;2022-10-16T15:38:12;22.50;95.90
40702;DHT22;26387;50.114;8.662;2022-10-16T15:40:39;22.40;95.90
40702;DHT22;26387;50.114;8.662;2022-10-16T15:43:05;22.40;96.30
40702;DHT22;26387;50.114;8.662;2022-10-16T15:45:30;22.30;96.50
40702;DHT22;26387;50.114;8.662;2022-10-16T15:47:56;22.20;96.60
40702;DHT22;26387;50.114;8.662;2022-10-16T15:50:22;22.10;96.60
40702;DHT22;26387;50.114;8.662;2022-10-16T15:52:47;22.00;97.20
40702;DHT22;26387;50.114;8.662;2022-10-16T15:55:14;22.00;97.60
40702;DHT22;26387;50.114;8.662;2022-10-16T15:57:40;21.90;97.50
40702;DHT22;26387;50.114;8.662;2022-10-16T16:00:12;21.80;97.60
40702;DHT22;26387;50.114;8.662;2022-10-16T16:02:38;21.70;97.60
40702;DHT22;26387;50.114;8.662;2022-10-16T16:05:04;21.70;98.00
40702;DHT22;26387;50.114;8.662;2022-10-16T16:07:34;21.60;98.10
40702;DHT22;26387;50.114;8.662;2022-10-16T16:10:00;21.60;98.10
40702;DHT22;26387;50.114;8.662;2022-10-16T16:12:25;21.50;98.20
40702;DHT22;26387;50.114;8.662;2022-10-16T16:14:51;21.50;98.30
40702;DHT22;26387;50.114;8.662;2022-10-16T16:17:17;21.40;98.80
40702;DHT22;26387;50.114;8.662;2022-10-16T16:19:43;21.40;99.00
40702;DHT22;26387;50.114;8.662;2022-10-16T16:22:08;21.30;98.90
40702;DHT22;26387;50.114;8.662;2022-10-16T16:24:34;21.30;98.90
40702;DHT22;26387;50.114;8.662;2022-10-16T16:27:00;21.30;99.00
40702;DHT22;26387;50.114;8.662;2022-10-16T16:29:25;21.20;99.20
40702;DHT22;26387;50.114;8.662;2022-10-16T16:31:51;21.20;99.30
40702;DHT22;26387;50.114;8.662;2022-10-16T16:34:25;21.20;99.30
40702;DHT22;26387;50.114;8.662;2022-10-16T16:36:51;21.10;99.40
40702;DHT22;26387;50.114;8.662;2022-10-16T16:39:17;21.10;99.70
40702;DHT22;26387;50.114;8.662;2022-10-16T16:41:42;21.00;99.50
40702;DHT22;26387;50.114;8.662;2022-10-16T16:44:10;21.00;99.70
40702;DHT22;26387;50.114;8.662;2022-10-16T16:46:36;20.80;99.70
40702;DHT22;26387;50.114;8.662;2022-10-16T16:49:03;20.80;99.90
40702;DHT22;26387;50.114;8.662;2022-10-16T16:51:28;20.80;99.90
40702;DHT22;26387;50.114;8.662;2022-10-16T16:53:55;20.70;99.90
40702;DHT22;26387;50.114;8.662;2022-10-16T16:56:22;20.70;99.90
40702;DHT22;26387;50.114;8.662;2022-10-16T16:58:50;20.70;99.90
40702;DHT22;26387;50.114;8.662;2022-10-16T17:01:16;20.70;99.90
40702;DHT22;26387;50.114;8.662;2022-10-16T17:03:43;20.70;99.90
40702;DHT22;26387;50.114;8.662;2022-10-16T17:06:10;20.60;99.90
40702;DHT22;26387;50.114;8.662;2022-10-16T17:08:36;20.60;99.90
40702;DHT22;26387;50.114;8.662;2022-10-16T17:11:03;20.60;99.90
40702;DHT22;26387;50.114;8.662;2022-10-16T17:13:34;20.50;99.90
40702;DHT22;26387;50.114;8.662;2022-10-16T17:16:02;20.50;99.90
40702;DHT22;26387;50.114;8.662;2022-10-16T17:18:28;20.50;99.90
40702;DHT22;26387;50.114;8.662;2022-10-16T17:20:53;20.50;99.90
40702;DHT22;26387;50.114;8.662;2022-10-16T17:23:19;20.50;99.90
40702;DHT22;26387;50.114;8.662;2022-10-16T17:25:45;20.50;99.90
40702;DHT22;26387;50.114;8.662;2022-10-16T17:28:12;20.50;99.90
40702;DHT22;26387;50.114;8.662;2022-10-16T17:30:39;20.40;99.90
40702;DHT22;26387;50.114;8.662;2022-10-16T17:33:05;20.40;99.90
40702;DHT22;26387;50.114;8.662;2022-10-16T17:35:43;20.40;99.90
40702;DHT22;26387;50.114;8.662;2022-10-16T17:38:11;20.40;99.90
40702;DHT22;26387;50.114;8.662;2022-10-16T17:40:38;20.40;99.90
40702;DHT22;26387;50.114;8.662;2022-10-16T17:43:04;20.30;99.90
40702;DHT22;26387;50.114;8.662;2022-10-16T17:45:30;20.30;99.90
40702;DHT22;26387;50.114;8.662;2022-10-16T17:47:58;20.30;99.90
40702;DHT22;26387;50.114;8.662;2022-10-16T17:50:24;20.20;99.90
40702;DHT22;26387;50.114;8.662;2022-10-16T17:52:49;20.20;99.90
40702;DHT22;26387;50.114;8.662;2022-10-16T17:55:15;20.10;99.90
40702;DHT22;26387;50.114;8.662;2022-10-16T17:57:41;20.10;99.90
40702;DHT22;26387;50.114;8.662;2022-10-16T18:00:07;20.00;99.90
40702;DHT22;26387;50.114;8.662;2022-10-16T18:02:32;20.00;99.90
40702;DHT22;26387;50.114;8.662;2022-10-16T18:04:58;19.90;99.90
40702;DHT22;26387;50.114;8.662;2022-10-16T18:07:25;19.90;99.90
40702;DHT22;26387;50.114;8.662;2022-10-16T18:09:51;19.80;99.90
40702;DHT22;26387;50.114;8.662;2022-10-16T18:12:17;19.80;99.90
40702;DHT22;26387;50.114;8.662;2022-10-16T18:14:43;19.70;99.90
40702;DHT22;26387;50.114;8.662;2022-10-16T18:17:09;19.70;99.90
40702;DHT22;26387;50.114;8.662;2022-10-16T18:19:34;19.70;99.90
40702;DHT22;26387;50.114;8.662;2022-10-16T18:22:00;19.70;99.90
40702;DHT22;26387;50.114;8.662;2022-10-16T18:24:26;19.70;99.90
40702;DHT22;26387;50.114;8.662;2022-10-16T18:26:54;19.60;99.90
40702;DHT22;26387;50.114;8.662;2022-10-16T18:29:24;19.60;99.90
40702;DHT22;26387;50.114;8.662;2022-10-16T18:31:50;19.60;99.90
40702;DHT22;26387;50.114;8.662;2022-10-16T18:34:15;19.50;99.90
40702;DHT22;26387;50.114;8.662;2022-10-16T18:36:41;19.50;99.90
40702;DHT22;26387;50.114;8.662;2022-10-16T18:39:11;19.50;99.90
40702;DHT22;26387;50.114;8.662;2022-10-16T18:41:38;19.40;99.90
40702;DHT22;26387;50.114;8.662;2022-10-16T18:44:05;19.40;99.90
40702;DHT22;26387;50.114;8.662;2022-10-16T18:46:31;19.40;99.90
40702;DHT22;26387;50.114;8.662;2022-10-16T18:48:57;19.40;99.90
40702;DHT22;26387;50.114;8.662;2022-10-16T18:51:32;19.40;99.90
40702;DHT22;26387;50.114;8.662;2022-10-16T18:54:00;19.40;99.90
40702;DHT22;26387;50.114;8.662;2022-10-16T18:56:27;19.30;99.90
40702;DHT22;26387;50.114;8.662;2022-10-16T18:58:53;19.30;99.90
40702;DHT22;26387;50.114;8.662;2022-10-16T19:01:21;19.30;99.90
40702;DHT22;26387;50.114;8.662;2022-10-16T19:03:48;19.20;99.90
40702;DHT22;26387;50.114;8.662;2022-10-16T19:06:17;19.20;99.90
40702;DHT22;26387;50.114;8.662;2022-10-16T19:08:42;19.20;99.90
40702;DHT22;26387;50.114;8.662;2022-10-16T19:11:11;19.10;99.90
40702;DHT22;26387;50.114;8.662;2022-10-16T19:13:37;19.10;99.90
40702;DHT22;26387;50.114;8.662;2022-10-16T19:16:04;19.10;99.90
40702;DHT22;26387;50.114;8.662;2022-10-16T19:18:33;19.10;99.90
40702;DHT22;26387;50.114;8.662;2022-10-16T19:21:07;19.10;99.90
40702;DHT22;26387;50.114;8.662;2022-10-16T19:23:34;19.10;99.90
40702;DHT22;26387;50.114;8.662;2022-10-16T19:26:09;19.10;99.90
40702;DHT22;26387;50.114;8.662;2022-10-16T19:28:36;19.00;99.90
40702;DHT22;26387;50.114;8.662;2022-10-16T19:31:07;19.00;99.90
40702;DHT22;26387;50.114;8.662;2022-10-16T19:33:33;19.00;99.90
40702;DHT22;26387;50.114;8.662;2022-10-16T19:36:16;19.00;99.90
40702;DHT22;26387;50.114;8.662;2022-10-16T19:38:43;19.00;99.90
40702;DHT22;26387;50.114;8.662;2022-10-16T19:41:11;18.90;99.90
40702;DHT22;26387;50.114;8.662;2022-10-16T19:43:37;19.00;99.90
40702;DHT22;26387;50.114;8.662;2022-10-16T19:46:10;18.90;99.90
40702;DHT22;26387;50.114;8.662;2022-10-16T19:48:37;18.90;99.90
40702;DHT22;26387;50.114;8.662;2022-10-16T19:51:03;18.90;99.90
40702;DHT22;26387;50.114;8.662;2022-10-16T19:53:29;18.90;99.90
40702;DHT22;26387;50.114;8.662;2022-10-16T19:55:55;18.80;99.90
40702;DHT22;26387;50.114;8.662;2022-10-16T19:58:22;18.80;99.90
40702;DHT22;26387;50.114;8.662;2022-10-16T20:00:47;18.80;99.90
40702;DHT22;26387;50.114;8.662;2022-10-16T20:03:13;18.80;99.90
40702;DHT22;26387;50.114;8.662;2022-10-16T20:05:39;18.80;99.90
40702;DHT22;26387;50.114;8.662;2022-10-16T20:08:14;18.70;99.90
40702;DHT22;26387;50.114;8.662;2022-10-16T20:10:55;18.70;99.90
40702;DHT22;26387;50.114;8.662;2022-10-16T20:13:21;18.70;99.90
40702;DHT22;26387;50.114;8.662;2022-10-16T20:15:47;18.70;99.90
40702;DHT22;26387;50.114;8.662;2022-10-16T20:18:14;18.70;99.90
40702;DHT22;26387;50.114;8.662;2022-10-16T20:20:41;18.70;99.90
40702;DHT22;26387;50.114;8.662;2022-10-16T20:23:07;18.70;99.90
40702;DHT22;26387;50.114;8.662;2022-10-16T20:25:38;18.70;99.90
40702;DHT22;26387;50.114;8.662;2022-10-16T20:28:06;18.60;99.90
40702;DHT22;26387;50.114;8.662;2022-10-16T20:30:34;18.60;99.90
40702;DHT22;26387;50.114;8.662;2022-10-16T20:32:59;18.60;99.90
40702;DHT22;26387;50.114;8.662;2022-10-16T20:35:25;18.60;99.90
40702;DHT22;26387;50.114;8.662;2022-10-16T20:37:51;18.60;99.90
40702;DHT22;26387;50.114;8.662;2022-10-16T20:40:16;18.60;99.90
40702;DHT22;26387;50.114;8.662;2022-10-16T20:42:42;18.60;99.90
40702;DHT22;26387;50.114;8.662;2022-10-16T20:45:08;18.60;99.90
40702;DHT22;26387;50.114;8.662;2022-10-16T20:47:33;18.50;99.90
40702;DHT22;26387;50.114;8.662;2022-10-16T20:49:59;18.50;99.90
40702;DHT22;26387;50.114;8.662;2022-10-16T20:52:24;18.50;99.90
40702;DHT22;26387;50.114;8.662;2022-10-16T20:54:50;18.50;99.90
40702;DHT22;26387;50.114;8.662;2022-10-16T20:57:15;18.40;99.90
40702;DHT22;26387;50.114;8.662;2022-10-16T20:59:41;18.40;99.90
40702;DHT22;26387;50.114;8.662;2022-10-16T21:02:08;18.40;99.90
40702;DHT22;26387;50.114;8.662;2022-10-16T21:04:34;18.40;99.90
40702;DHT22;26387;50.114;8.662;2022-10-16T21:06:59;18.40;99.90
40702;DHT22;26387;50.114;8.662;2022-10-16T21:09:25;18.40;99.90
40702;DHT22;26387;50.114;8.662;2022-10-16T21:11:50;18.30;99.90
40702;DHT22;26387;50.114;8.662;2022-10-16T21:14:16;18.30;99.90
40702;DHT22;26387;50.114;8.662;2022-10-16T21:16:42;18.20;99.90
40702;DHT22;26387;50.114;8.662;2022-10-16T21:19:07;18.20;99.90
40702;DHT22;26387;50.114;8.662;2022-10-16T21:21:35;18.20;99.90
40702;DHT22;26387;50.114;8.662;2022-10-16T21:24:01;18.20;99.90
40702;DHT22;26387;50.114;8.662;2022-10-16T21:26:27;18.10;99.90
40702;DHT22;26387;50.114;8.662;2022-10-16T21:28:58;18.10;99.90
40702;DHT22;26387;50.114;8.662;2022-10-16T21:31:23;18.10;99.90
40702;DHT22;26387;50.114;8.662;2022-10-16T21:33:50;18.10;99.90
40702;DHT22;26387;50.114;8.662;2022-10-16T21:36:23;18.10;99.90
40702;DHT22;26387;50.114;8.662;2022-10-16T21:38:49;18.00;99.90
40702;DHT22;26387;50.114;8.662;2022-10-16T21:41:21;18.00;99.90
40702;DHT22;26387;50.114;8.662;2022-10-16T21:43:47;18.00;99.90
40702;DHT22;26387;50.114;8.662;2022-10-16T21:46:13;18.00;99.90
40702;DHT22;26387;50.114;8.662;2022-10-16T21:48:39;18.00;99.90
40702;DHT22;26387;50.114;8.662;2022-10-16T21:51:06;17.90;99.90
40702;DHT22;26387;50.114;8.662;2022-10-16T21:53:32;17.90;99.90
40702;DHT22;26387;50.114;8.662;2022-10-16T21:55:58;17.90;99.90
40702;DHT22;26387;50.114;8.662;2022-10-16T21:58:23;17.80;99.90
40702;DHT22;26387;50.114;8.662;2022-10-16T22:00:49;17.80;99.90
40702;DHT22;26387;50.114;8.662;2022-10-16T22:03:15;17.80;99.90
40702;DHT22;26387;50.114;8.662;2022-10-16T22:05:40;17.80;99.90
40702;DHT22;26387;50.114;8.662;2022-10-16T22:08:06;17.80;99.90
40702;DHT22;26387;50.114;8.662;2022-10-16T22:10:31;17.80;99.90
40702;DHT22;26387;50.114;8.662;2022-10-16T22:12:57;17.80;99.90
40702;DHT22;26387;50.114;8.662;2022-10-16T22:15:23;17.80;99.90
40702;DHT22;26387;50.114;8.662;2022-10-16T22:17:48;17.70;99.90
40702;DHT22;26387;50.114;8.662;2022-10-16T22:20:14;17.70;99.90
40702;DHT22;26387;50.114;8.662;2022-10-16T22:22:39;17.80;99.90
40702;DHT22;26387;50.114;8.662;2022-10-16T22:25:05;17.70;99.90
40702;DHT22;26387;50.114;8.662;2022-10-16T22:27:31;17.70;99.90
40702;DHT22;26387;50.114;8.662;2022-10-16T22:29:56;17.70;99.90
40702;DHT22;26387;50.114;8.662;2022-10-16T22:32:22;17.70;99.90
40702;DHT22;26387;50.114;8.662;2022-10-16T22:34:47;17.60;99.90
40702;DHT22;26387;50.114;8.662;2022-10-16T22:37:13;17.60;99.90
40702;DHT22;26387;50.114;8.662;2022-10-16T22:39:39;17.60;99.90
40702;DHT22;26387;50.114;8.662;2022-10-16T22:42:04;17.60;99.90
40702;DHT22;26387;50.114;8.662;2022-10-16T22:44:30;17.60;99.90
40702;DHT22;26387;50.114;8.662;2022-10-16T22:46:56;17.60;99.90
40702;DHT22;26387;50.114;8.662;2022-10-16T22:49:22;17.60;99.90
40702;DHT22;26387;50.114;8.662;2022-10-16T22:51:48;17.50;99.90
40702;DHT22;26387;50.114;8.662;2022-10-16T22:54:13;17.60;99.90
40702;DHT22;26387;50.114;8.662;2022-10-16T22:56:39;17.50;99.90
40702;DHT22;26387;50.114;8.662;2022-10-16T22:59:04;17.50;99.90
40702;DHT22;26387;50.114;8.662;2022-10-16T23:01:36;17.50;99.90
40702;DHT22;26387;50.114;8.662;2022-10-16T23:04:02;17.40;99.90
40702;DHT22;26387;50.114;8.662;2022-10-16T23:06:28;17.50;99.90
40702;DHT22;26387;50.114;8.662;2022-10-16T23:08:56;17.40;99.90
40702;DHT22;26387;50.114;8.662;2022-10-16T23:11:23;17.40;99.90
40702;DHT22;26387;50.114;8.662;2022-10-16T23:13:49;17.40;99.90
40702;DHT22;26387;50.114;8.662;2022-10-16T23:16:17;17.40;99.90
40702;DHT22;26387;50.114;8.662;2022-10-16T23:18:44;17.40;99.90
40702;DHT22;26387;50.114;8.662;2022-10-16T23:21:12;17.30;99.90
40702;DHT22;26387;50.114;8.662;2022-10-16T23:23:38;17.30;99.90
40702;DHT22;26387;50.114;8.662;2022-10-16T23:26:33;17.20;99.90
40702;DHT22;26387;50.114;8.662;2022-10-16T23:29:00;17.20;99.90
40702;DHT22;26387;50.114;8.662;2022-10-16T23:31:26;17.20;99.90
40702;DHT22;26387;50.114;8.662;2022-10-16T23:33:52;17.20;99.90
40702;DHT22;26387;50.114;8.662;2022-10-16T23:36:19;17.20;99.90
40702;DHT22;26387;50.114;8.662;2022-10-16T23:38:45;17.10;99.90
40702;DHT22;26387;50.114;8.662;2022-10-16T23:41:12;17.20;99.90
40702;DHT22;26387;50.114;8.662;2022-10-16T23:43:39;17.10;99.90
40702;DHT22;26387;50.114;8.662;2022-10-16T23:46:06;17.10;99.90
40702;DHT22;26387;50.114;8.662;2022-10-16T23:48:32;17.10;99.90
40702;DHT22;26387;50.114;8.662;2022-10-16T23:50:58;17.10;99.90
40702;DHT22;26387;50.114;8.662;2022-10-16T23:53:24;17.10;99.90
40702;DHT22;26387;50.114;8.662;2022-10-16T23:55:49;17.10;99.90
40702;DHT22;26387;50.114;8.662;2022-10-16T23:58:15;17.00;99.90
